.
WxDataArchive / Data Records for 2012-02-03
2012-02-02 February 2012 2012-02-04

Data Records for Friday, 03 February 2012

Time	Temp	Chill	HIndex	Humid	Dewpt	 Wind 	HiWind	WindDir	Rain 	Barom 
-----	----	-----	------	-----	-----	------	------	-------	-----	----- 
00:00	27.3	27.3	27.3	91	25.0	0	0	---	0.00	30.412 
00:05	27.3	27.3	27.3	92	25.3	0	0	---	0.00	30.412 
00:10	27.3	27.3	27.3	92	25.3	0	0	---	0.00	30.412 
00:15	27.3	27.3	27.3	92	25.3	0	0	---	0.00	30.410 
00:20	27.3	27.3	27.3	92	25.3	0	0	---	0.00	30.410 
00:25	27.3	27.3	27.3	92	25.3	0	0	---	0.00	30.410 
00:30	27.3	27.3	27.3	92	25.3	0	0	---	0.00	30.414 
00:35	27.3	27.3	27.3	92	25.3	0	0	---	0.00	30.414 
00:40	27.2	27.2	27.2	92	25.2	0	0	---	0.00	30.414 
00:45	27.2	27.2	27.2	92	25.2	0	0	---	0.00	30.419 
00:50	27.2	27.2	27.2	92	25.2	0	0	---	0.00	30.419 
00:55	27.2	27.2	27.2	92	25.2	0	0	---	0.00	30.419 
01:00	27.0	27.0	27.0	92	25.0	0	0	---	0.00	30.428 
01:05	27.0	27.0	27.0	92	25.0	0	0	---	0.00	30.428 
01:10	26.9	26.9	26.9	92	24.9	0	0	---	0.00	30.428 
01:15	26.9	26.9	26.9	92	24.9	0	0	---	0.00	30.428 
01:20	26.9	26.9	26.9	92	24.9	0	0	---	0.00	30.428 
01:25	26.7	26.7	26.7	92	24.7	0	0	---	0.00	30.428 
01:30	26.7	26.7	26.7	92	24.7	0	0	---	0.00	30.430 
01:35	26.6	26.6	26.6	92	24.6	0	0	---	0.00	30.430 
01:40	26.6	26.6	26.6	92	24.6	0	0	---	0.00	30.430 
01:45	26.4	26.4	26.4	92	24.4	0	0	---	0.00	30.433 
01:50	26.4	26.4	26.4	92	24.4	0	0	---	0.00	30.433 
01:55	26.3	26.3	26.3	92	24.3	0	0	---	0.00	30.433 
02:00	26.3	26.3	26.3	92	24.3	0	0	---	0.00	30.430 
02:05	26.1	26.1	26.1	92	24.1	0	0	---	0.00	30.430 
02:10	26.1	26.1	26.1	92	24.1	0	0	---	0.00	30.430 
02:15	26.1	26.1	26.1	92	24.1	0	0	---	0.00	30.430 
02:20	26.3	26.3	26.3	92	24.3	0	0	---	0.00	30.430 
02:25	26.3	26.3	26.3	92	24.3	0	0	---	0.00	30.430 
02:30	26.3	26.3	26.3	92	24.3	0	0	---	0.00	30.432 
02:35	26.4	26.4	26.4	92	24.4	0	0	---	0.00	30.432 
02:40	26.4	26.4	26.4	92	24.4	0	0	---	0.00	30.432 
02:45	26.6	26.6	26.6	92	24.6	0	0	---	0.00	30.433 
02:50	26.6	26.6	26.6	92	24.6	0	0	---	0.00	30.433 
02:55	26.6	26.6	26.6	92	24.6	0	0	---	0.00	30.433 
03:00	26.6	26.6	26.6	92	24.6	0	0	---	0.00	30.435 
03:05	26.7	26.7	26.7	92	24.7	0	0	---	0.00	30.435 
03:10	26.7	26.7	26.7	93	25.0	0	0	---	0.00	30.435 
03:15	26.7	26.7	26.7	92	24.7	0	0	---	0.00	30.436 
03:20	26.6	26.6	26.6	92	24.6	0	0	---	0.00	30.436 
03:25	26.6	26.6	26.6	92	24.6	0	0	---	0.00	30.436 
03:30	26.4	26.4	26.4	92	24.4	0	0	---	0.00	30.433 
03:35	26.3	26.3	26.3	92	24.3	0	0	---	0.00	30.433 
03:40	26.3	26.3	26.3	92	24.3	0	0	---	0.00	30.433 
03:45	26.1	26.1	26.1	92	24.1	0	0	---	0.00	30.439 
03:50	26.0	26.0	26.0	92	24.0	0	0	---	0.00	30.439 
03:55	26.0	26.0	26.0	92	24.0	0	0	---	0.00	30.439 
04:00	25.8	25.8	25.8	92	23.8	0	0	---	0.00	30.441 
04:05	25.8	25.8	25.8	92	23.8	0	0	---	0.00	30.441 
04:10	25.7	25.7	25.7	92	23.7	0	0	---	0.00	30.441 
04:15	25.7	25.7	25.7	92	23.7	0	0	---	0.00	30.445 
04:20	25.6	25.6	25.6	92	23.6	0	0	---	0.00	30.445 
04:25	25.4	25.4	25.4	92	23.4	0	0	---	0.00	30.445 
04:30	25.4	25.4	25.4	92	23.4	0	0	---	0.00	30.447 
04:35	25.3	25.3	25.3	92	23.3	0	0	---	0.00	30.447 
04:40	25.3	25.3	25.3	92	23.3	0	0	---	0.00	30.447 
04:45	25.1	25.1	25.1	92	23.1	0	0	---	0.00	30.450 
04:50	25.1	25.1	25.1	92	23.1	0	0	---	0.00	30.450 
04:55	25.0	25.0	25.0	92	23.0	0	0	---	0.00	30.450 
05:00	25.0	25.0	25.0	92	23.0	0	0	---	0.00	30.453 
05:05	25.0	25.0	25.0	92	23.0	0	0	---	0.00	30.453 
05:10	24.8	24.8	24.8	92	22.8	0	0	---	0.00	30.453 
05:15	24.8	24.8	24.8	92	22.8	0	0	---	0.00	30.454 
05:20	24.7	24.7	24.7	92	22.7	0	0	---	0.00	30.454 
05:25	24.7	24.7	24.7	92	22.7	0	0	---	0.00	30.454 
05:30	24.7	24.7	24.7	92	22.7	0	0	---	0.00	30.459 
05:35	24.7	24.7	24.7	92	22.7	0	0	---	0.00	30.459 
05:40	24.5	24.5	24.5	92	22.5	0	0	---	0.00	30.459 
05:45	24.7	24.7	24.7	93	23.0	0	0	---	0.00	30.464 
05:50	24.8	24.8	24.8	93	23.1	0	0	---	0.00	30.464 
05:55	25.0	25.0	25.0	93	23.3	0	0	---	0.00	30.464 
06:00	25.0	25.0	25.0	93	23.3	0	0	---	0.00	30.463 
06:05	25.1	25.1	25.1	93	23.4	0	0	---	0.00	30.463 
06:10	25.1	25.1	25.1	93	23.4	0	0	---	0.00	30.463 
06:15	25.1	25.1	25.1	93	23.4	0	0	---	0.00	30.469 
06:20	25.1	25.1	25.1	93	23.4	0	0	---	0.00	30.469 
06:25	25.1	25.1	25.1	93	23.4	0	0	---	0.00	30.469 
06:30	25.0	25.0	25.0	93	23.3	0	0	---	0.00	30.471 
06:35	25.0	25.0	25.0	93	23.3	0	0	---	0.00	30.471 
06:40	24.8	24.8	24.8	93	23.1	0	0	---	0.00	30.471 
06:45	24.7	24.7	24.7	93	23.0	0	0	---	0.00	30.473 
06:50	24.7	24.7	24.7	93	23.0	0	0	---	0.00	30.473 
06:55	24.7	24.7	24.7	93	23.0	0	0	---	0.00	30.473 
07:00	24.5	24.5	24.5	93	22.8	0	0	---	0.00	30.477 
07:05	24.5	24.5	24.5	93	22.8	0	0	---	0.00	30.477 
07:10	24.5	24.5	24.5	93	22.8	0	0	---	0.00	30.477 
07:15	24.7	24.7	24.7	93	23.0	0	0	---	0.00	30.486 
07:20	24.7	24.7	24.7	93	23.0	0	0	---	0.00	30.486 
07:25	24.7	24.7	24.7	93	23.0	0	0	---	0.00	30.486 
07:30	24.8	24.8	24.8	93	23.1	0	0	---	0.00	30.488 
07:35	24.8	24.8	24.8	93	23.1	0	0	---	0.00	30.488 
07:40	24.8	24.8	24.8	93	23.1	0	0	---	0.00	30.488 
07:45	24.8	24.8	24.8	93	23.1	0	0	---	0.00	30.497 
07:50	24.8	24.8	24.8	93	23.1	0	0	---	0.00	30.497 
07:55	24.8	24.8	24.8	93	23.1	0	0	---	0.00	30.497 
08:00	24.8	24.8	24.8	93	23.1	0	0	---	0.00	30.501 
08:05	24.8	24.8	24.8	93	23.1	0	0	---	0.00	30.501 
08:10	24.8	24.8	24.8	93	23.1	0	0	---	0.00	30.501 
08:15	25.0	25.0	25.0	93	23.3	0	0	---	0.00	30.504 
08:20	25.0	25.0	25.0	93	23.3	0	0	---	0.00	30.504 
08:25	25.1	25.1	25.1	93	23.4	0	0	---	0.00	30.504 
08:30	25.1	25.1	25.1	93	23.4	0	0	---	0.00	30.505 
08:35	25.3	25.3	25.3	94	23.8	0	0	---	0.00	30.505 
08:40	25.4	25.4	25.4	94	23.9	0	1	315	0.00	30.505 
08:45	25.4	25.4	25.4	94	23.9	0	1	315	0.00	30.507 
08:50	25.6	25.6	25.6	94	24.1	0	0	---	0.00	30.507 
08:55	25.7	25.7	25.7	94	24.2	0	0	---	0.00	30.507 
09:00	25.8	25.8	25.8	94	24.3	0	0	---	0.00	30.507 
09:05	26.1	26.1	26.1	94	24.6	0	0	---	0.00	30.507 
09:10	26.4	26.4	26.4	94	24.9	0	0	---	0.00	30.507 
09:15	26.7	26.7	26.7	94	25.2	0	0	---	0.00	30.509 
09:20	26.9	26.9	26.9	94	25.4	0	0	---	0.00	30.509 
09:25	27.0	27.0	27.0	94	25.5	0	0	---	0.00	30.509 
09:30	27.2	27.2	27.2	94	25.7	0	0	---	0.00	30.500 
09:35	27.5	27.5	27.5	95	26.3	0	0	---	0.00	30.500 
09:40	27.6	27.6	27.6	95	26.4	0	1	315	0.00	30.500 
09:45	27.9	27.9	27.9	95	26.7	0	0	---	0.00	30.494 
09:50	28.5	28.5	28.5	95	27.3	0	1	315	0.00	30.494 
09:55	29.0	29.0	29.0	95	27.8	0	1	315	0.00	30.494 
10:00	29.4	29.4	29.4	95	28.1	0	0	---	0.00	30.496 
10:05	30.0	30.0	30.0	95	28.7	0	1	315	0.00	30.496 
10:10	30.4	30.4	30.4	95	29.1	0	0	---	0.00	30.496 
10:15	31.0	31.0	31.0	96	30.0	0	0	---	0.00	30.497 
10:20	31.5	31.5	31.5	96	30.5	0	0	---	0.00	30.497 
10:25	32.1	32.1	32.1	96	31.1	0	0	---	0.00	30.497 
10:30	32.5	32.5	32.5	96	31.5	0	0	---	0.00	30.501 
10:35	32.9	32.9	32.9	96	31.9	0	1	315	0.00	30.501 
10:40	33.5	33.5	33.5	96	32.5	0	0	---	0.00	30.501 
10:45	34.1	34.1	34.1	96	33.1	0	1	315	0.00	30.499 
10:50	34.6	34.6	34.6	96	33.6	0	1	315	0.00	30.499 
10:55	35.0	35.0	35.0	96	34.0	1	3	315	0.00	30.499 
11:00	35.5	35.5	35.5	96	34.5	0	2	315	0.00	30.493 
11:05	35.8	35.8	35.8	96	34.8	1	3	315	0.00	30.493 
11:10	36.0	36.0	36.0	96	35.0	1	3	112	0.00	30.493 
11:15	36.3	36.3	36.3	96	35.3	1	3	112	0.00	30.488 
11:20	36.6	36.6	36.6	95	35.3	1	3	112	0.00	30.488 
11:25	36.8	36.8	36.8	95	35.5	1	3	112	0.00	30.488 
11:30	37.2	37.2	37.2	94	35.6	1	3	112	0.00	30.469 
11:35	37.5	37.5	37.5	94	35.9	2	4	112	0.00	30.469 
11:40	37.9	37.9	37.9	93	36.1	0	2	112	0.00	30.469 
11:45	38.3	38.3	38.3	92	36.2	0	2	112	0.00	30.463 
11:50	38.6	38.6	38.6	92	36.5	1	3	112	0.00	30.463 
11:55	38.9	38.9	38.9	91	36.5	1	3	112	0.00	30.463 
12:00	39.2	39.2	39.2	89	36.2	1	3	112	0.00	30.449 
12:05	39.6	39.6	39.6	89	36.6	1	3	112	0.00	30.449 
12:10	40.2	40.2	40.2	87	36.6	2	4	112	0.00	30.449 
12:15	40.6	40.6	40.6	86	36.7	1	3	90	0.00	30.435 
12:20	40.8	40.8	40.8	85	36.6	2	4	90	0.00	30.435 
12:25	41.3	41.3	41.3	84	36.8	1	5	90	0.00	30.435 
12:30	41.6	41.6	41.6	83	36.8	3	5	90	0.00	30.425 
12:35	42.2	42.2	42.2	82	37.1	1	4	90	0.00	30.425 
12:40	42.8	42.8	42.8	80	37.1	2	6	90	0.00	30.425 
12:45	43.3	43.3	43.3	78	36.9	2	5	90	0.00	30.412 
12:50	43.8	43.8	43.8	77	37.1	1	3	90	0.00	30.412 
12:55	44.1	44.1	44.1	76	37.0	1	4	90	0.00	30.412 
13:00	44.2	44.2	44.2	75	36.8	1	4	112	0.00	30.408 
13:05	44.5	44.5	44.5	74	36.7	1	3	112	0.00	30.408 
13:10	44.8	44.8	44.8	73	36.7	1	4	112	0.00	30.408 
13:15	45.4	45.4	45.4	73	37.3	0	2	112	0.00	30.400 
13:20	45.5	45.5	45.5	72	37.0	0	3	112	0.00	30.400 
13:25	45.7	45.7	45.7	71	36.8	1	3	112	0.00	30.400 
13:30	45.7	45.7	45.7	69	36.1	2	4	112	0.00	30.397 
13:35	45.8	45.8	45.8	69	36.2	1	4	112	0.00	30.397 
13:40	45.8	45.8	45.8	68	35.8	1	3	112	0.00	30.397 
13:45	46.0	46.0	46.0	69	36.4	0	2	112	0.00	30.403 
13:50	46.1	46.1	46.1	69	36.5	1	3	112	0.00	30.403 
13:55	46.4	46.4	46.4	69	36.8	0	1	112	0.00	30.403 
14:00	46.5	46.5	46.5	66	35.8	0	2	112	0.00	30.402 
14:05	46.7	46.7	46.7	67	36.3	1	3	112	0.00	30.402 
14:10	46.8	46.8	46.8	67	36.4	0	2	112	0.00	30.402 
14:15	47.0	47.0	47.0	67	36.6	0	0	---	0.00	30.403 
14:20	47.1	47.1	47.1	67	36.7	0	2	112	0.00	30.403 
14:25	47.4	47.4	47.4	66	36.6	0	1	112	0.00	30.403 
14:30	47.4	47.4	47.4	65	36.2	0	2	112	0.00	30.406 
14:35	47.7	47.7	47.7	64	36.1	0	3	112	0.00	30.406 
14:40	48.0	48.0	48.0	63	36.0	0	2	112	0.00	30.406 
14:45	48.2	48.2	48.2	63	36.2	0	1	112	0.00	30.400 
14:50	48.2	48.2	48.2	62	35.8	0	1	112	0.00	30.400 
14:55	48.2	48.2	48.2	63	36.2	0	1	112	0.00	30.400 
15:00	48.3	48.3	48.3	62	35.9	0	2	112	0.00	30.392 
15:05	48.5	48.5	48.5	62	36.1	0	2	112	0.00	30.392 
15:10	48.3	48.3	48.3	60	35.1	1	2	112	0.00	30.392 
15:15	48.2	48.2	48.2	61	35.4	0	2	112	0.00	30.392 
15:20	48.0	48.0	48.0	61	35.2	0	1	112	0.00	30.392 
15:25	48.0	48.0	48.0	62	35.6	0	2	112	0.00	30.392 
15:30	48.2	48.2	48.2	66	37.4	0	2	112	0.00	30.396 
15:35	47.7	47.7	47.7	69	38.0	0	3	45	0.00	30.396 
15:40	46.7	46.7	46.7	71	37.8	0	2	45	0.00	30.396 
15:45	46.0	46.0	46.0	73	37.8	0	2	0	0.00	30.401 
15:50	45.5	45.5	45.5	74	37.7	0	2	112	0.00	30.401 
15:55	44.9	44.9	44.9	75	37.5	1	2	45	0.00	30.401 
16:00	44.6	44.6	44.6	76	37.5	1	2	45	0.00	30.395 
16:05	44.2	44.2	44.2	77	37.5	0	2	45	0.00	30.395 
16:10	43.9	43.9	43.9	78	37.5	0	3	135	0.00	30.395 
16:15	43.6	43.6	43.6	78	37.2	0	3	22	0.00	30.401 
16:20	43.5	43.5	43.5	79	37.4	0	1	22	0.00	30.401 
16:25	43.3	43.3	43.3	79	37.2	0	2	22	0.00	30.401 
16:30	43.1	43.1	43.1	79	37.0	0	3	22	0.00	30.399 
16:35	42.8	42.8	42.8	80	37.1	0	3	270	0.00	30.399 
16:40	42.6	42.6	42.6	80	36.9	0	1	270	0.00	30.399 
16:45	42.5	42.5	42.5	81	37.1	0	1	270	0.00	30.399 
16:50	42.5	42.5	42.5	81	37.1	0	0	---	0.00	30.399 
16:55	42.3	42.3	42.3	81	36.9	0	0	---	0.00	30.399 
17:00	42.3	42.3	42.3	81	36.9	0	1	270	0.00	30.400 
17:05	42.2	42.2	42.2	81	36.8	0	1	270	0.00	30.400 
17:10	42.1	42.1	42.1	82	37.0	0	1	270	0.00	30.400 
17:15	41.9	41.9	41.9	82	36.8	0	1	270	0.00	30.401 
17:20	41.8	41.8	41.8	82	36.7	0	1	270	0.00	30.401 
17:25	41.6	41.6	41.6	83	36.8	0	1	270	0.00	30.401 
17:30	41.5	41.5	41.5	83	36.7	0	2	270	0.00	30.399 
17:35	41.5	41.5	41.5	84	37.0	0	2	270	0.00	30.399 
17:40	41.3	41.3	41.3	84	36.8	0	1	270	0.00	30.399 
17:45	41.1	41.1	41.1	84	36.6	0	1	270	0.00	30.395 
17:50	40.9	40.9	40.9	84	36.4	0	0	---	0.00	30.395 
17:55	40.8	40.8	40.8	84	36.3	0	1	270	0.00	30.395 
18:00	40.5	40.5	40.5	84	36.1	0	0	---	0.00	30.396 
18:05	40.3	40.3	40.3	85	36.2	0	0	---	0.00	30.396 
18:10	40.1	40.1	40.1	85	36.0	0	1	270	0.00	30.396 
18:15	39.9	39.9	39.9	85	35.8	0	0	---	0.00	30.399 
18:20	39.6	39.6	39.6	85	35.5	0	0	---	0.00	30.399 
18:25	39.5	39.5	39.5	86	35.7	0	0	---	0.00	30.399 
18:30	39.2	39.2	39.2	86	35.4	0	0	---	0.00	30.392 
18:35	39.2	39.2	39.2	87	35.7	0	1	270	0.00	30.392 
18:40	39.1	39.1	39.1	87	35.6	0	1	270	0.00	30.392 
18:45	39.1	39.1	39.1	88	35.9	0	1	270	0.00	30.394 
18:50	39.1	39.1	39.1	88	35.9	0	1	270	0.00	30.394 
18:55	39.1	39.1	39.1	88	35.9	0	1	270	0.00	30.394 
19:00	38.9	38.9	38.9	87	35.4	0	0	---	0.00	30.403 
19:05	38.9	38.9	38.9	88	35.7	0	2	225	0.00	30.403 
19:10	38.9	38.9	38.9	88	35.7	0	1	225	0.00	30.403 
19:15	38.9	38.9	38.9	88	35.7	0	2	225	0.00	30.408 
19:20	38.9	38.9	38.9	87	35.4	0	4	225	0.00	30.408 
19:25	38.8	38.8	38.8	86	35.0	1	4	112	0.00	30.408 
19:30	38.6	38.6	38.6	86	34.8	0	0	---	0.00	30.409 
19:35	38.5	38.5	38.5	86	34.7	0	1	112	0.00	30.409 
19:40	38.2	38.2	38.2	86	34.4	0	2	112	0.00	30.409 
19:45	37.9	37.9	37.9	86	34.1	0	4	112	0.00	30.407 
19:50	37.8	37.8	37.8	86	34.0	0	1	68	0.00	30.407 
19:55	37.5	37.5	37.5	86	33.7	0	1	68	0.00	30.407 
20:00	37.3	37.3	37.3	86	33.5	0	2	68	0.00	30.412 
20:05	37.2	37.2	37.2	86	33.4	0	1	68	0.00	30.412 
20:10	37.2	37.2	37.2	86	33.4	0	2	68	0.00	30.412 
20:15	37.0	37.0	37.0	86	33.2	0	1	68	0.00	30.407 
20:20	37.0	37.0	37.0	86	33.2	0	0	---	0.00	30.407 
20:25	37.0	37.0	37.0	86	33.2	0	0	---	0.00	30.407 
20:30	36.9	36.9	36.9	86	33.1	0	1	68	0.00	30.406 
20:35	36.9	36.9	36.9	86	33.1	0	2	68	0.00	30.406 
20:40	36.9	36.9	36.9	86	33.1	0	1	68	0.00	30.406 
20:45	36.9	36.9	36.9	86	33.1	0	2	68	0.00	30.390 
20:50	36.8	36.8	36.8	87	33.3	0	1	68	0.00	30.390 
20:55	36.8	36.8	36.8	87	33.3	0	1	68	0.00	30.390 
21:00	36.6	36.6	36.6	87	33.1	0	2	68	0.00	30.388 
21:05	36.6	36.6	36.6	87	33.1	0	2	68	0.00	30.388 
21:10	36.6	36.6	36.6	87	33.1	0	2	68	0.00	30.388 
21:15	36.5	36.5	36.5	87	33.0	0	2	68	0.00	30.382 
21:20	36.5	36.5	36.5	87	33.0	1	3	68	0.00	30.382 
21:25	36.3	36.3	36.3	87	32.8	0	2	68	0.00	30.382 
21:30	36.3	36.3	36.3	88	33.1	0	2	68	0.00	30.386 
21:35	36.3	36.3	36.3	88	33.1	0	3	68	0.00	30.386 
21:40	36.2	36.2	36.2	88	33.0	0	2	68	0.00	30.386 
21:45	36.2	36.2	36.2	88	33.0	0	2	68	0.00	30.395 
21:50	36.0	36.0	36.0	88	32.8	0	1	338	0.00	30.395 
21:55	36.0	36.0	36.0	88	32.8	0	1	338	0.00	30.395 
22:00	36.0	36.0	36.0	88	32.8	0	4	112	0.00	30.394 
22:05	36.0	36.0	36.0	88	32.8	0	2	112	0.00	30.394 
22:10	36.0	36.0	36.0	88	32.8	1	4	112	0.00	30.394 
22:15	35.9	35.9	35.9	88	32.7	1	4	90	0.00	30.379 
22:20	35.9	35.9	35.9	88	32.7	1	4	90	0.00	30.379 
22:25	35.9	35.9	35.9	88	32.7	1	4	112	0.00	30.379 
22:30	35.9	35.9	35.9	88	32.7	0	2	112	0.00	30.383 
22:35	35.9	35.9	35.9	88	32.7	1	3	112	0.00	30.383 
22:40	35.9	35.9	35.9	88	32.7	1	3	112	0.00	30.383 
22:45	35.8	35.8	35.8	88	32.6	1	4	90	0.00	30.375 
22:50	35.8	35.8	35.8	87	32.3	1	6	90	0.00	30.375 
22:55	35.6	35.6	35.6	86	31.8	1	5	90	0.00	30.375 
23:00	35.6	35.6	35.6	86	31.8	2	5	90	0.00	30.379 
23:05	35.6	35.6	35.6	85	31.5	2	7	112	0.00	30.379 
23:10	35.6	35.6	35.6	85	31.5	2	7	112	0.00	30.379 
23:15	35.5	35.5	35.5	85	31.4	3	7	90	0.00	30.378 
23:20	35.5	35.5	35.5	85	31.4	3	6	112	0.00	30.378 
23:25	35.5	35.5	35.5	85	31.4	3	6	90	0.00	30.378 
23:30	35.3	35.3	35.3	85	31.2	2	9	90	0.00	30.376 
23:35	35.3	35.3	35.3	86	31.5	3	8	90	0.00	30.376 
23:40	35.2	35.2	35.2	86	31.4	1	5	90	0.00	30.376 
23:45	35.2	35.2	35.2	86	31.4	2	11	112	0.00	30.369 
23:50	35.0	35.0	35.0	86	31.2	3	7	112	0.00	30.369 
23:55	35.0	35.0	35.0	86	31.2	2	9	112	0.00	30.369 

CoCoRaHS
IN-AL-39
A2 Web Hosting
Creative Commons License
GoDaddy
search engine by freefind advanced

loaded 2018-11-15 05:09:09 • last modified 2010-11-18 10:43:29
Privacy PolicyDisclaimer
• wx.awcolley.com is powered by PmWiki v.2002016 •
• all content (unless otherwise noted) © 2018 A W Colley